METAR Data
IDs: Format: Raw Decoded Include TAF

Data at: 0240 UTC 05 Jun 2020

KFWB 050215Z AUTO 00000KT 10SM SCT040 BKN047 25/22 A2986 RMK AO2
KFWB 050155Z AUTO 24003KT 10SM OVC043 26/23 A2986 RMK AO2
KFWB 050135Z AUTO 22003KT 10SM OVC041 26/23 A2985 RMK AO2
KFWB 050115Z AUTO 22003KT 10SM BKN041 27/22 A2984 RMK AO2
KFWB 050055Z AUTO 00000KT 10SM CLR 27/23 A2984 RMK AO2
KFWB 050035Z AUTO 00000KT 10SM SCT041 28/23 A2984 RMK AO2
KFWB 050015Z AUTO 20003KT 10SM OVC041 28/23 A2984 RMK AO2
KFWB 042355Z AUTO 22003KT 10SM OVC041 28/23 A2984 RMK AO2
KFWB 042335Z AUTO 22005KT 10SM BKN039 28/22 A2984 RMK AO2
KFWB 042315Z AUTO 22007KT 10SM OVC041 29/23 A2984 RMK AO2
KFWB 042255Z AUTO 20004KT 10SM BKN041 29/23 A2984 RMK AO2
KFWB 042235Z AUTO 21006KT 10SM BKN041 29/23 A2984 RMK AO2
KFWB 042215Z AUTO 22005KT 10SM BKN037 29/22 A2984 RMK AO2
KFWB 042155Z AUTO 22006KT 10SM SCT037 29/22 A2985 RMK AO2
KFWB 042135Z AUTO 25006KT 10SM FEW037 29/23 A2985 RMK AO2
KFWB 042115Z AUTO 22005KT 10SM SCT037 29/23 A2985 RMK AO2
KFWB 042055Z AUTO 25004KT 10SM FEW041 29/22 A2985 RMK AO2
KFWB 042035Z AUTO 24009KT 10SM CLR 29/22 A2986 RMK AO2
KFWB 042015Z AUTO 26011G16KT 10SM CLR 29/22 A2986 RMK AO2
KFWB 041955Z AUTO 26012KT 210V270 10SM CLR 28/22 A2986 RMK AO2
KFWB 041935Z AUTO 22007KT 180V260 10SM CLR 28/21 A2987 RMK AO2
KFWB 041915Z AUTO 24005KT 10SM CLR 27/21 A2987 RMK AO2
KFWB 041855Z AUTO 25007KT 230V290 10SM CLR 26/21 A2987 RMK AO2
KFWB 041835Z AUTO 23007KT 10SM CLR 25/20 A2987 RMK AO2
KFWB 041815Z AUTO 25005KT 10SM CLR 24/20 A2988 RMK AO2
KFWB 041755Z AUTO 22007KT 10SM CLR 24/20 A2988 RMK AO2
KFWB 041735Z AUTO 22008KT 10SM CLR 23/19 A2988 RMK AO2
KFWB 041715Z AUTO 24005KT 10SM CLR 23/20 A2989 RMK AO2
KFWB 041655Z AUTO 23006KT 10SM CLR 21/21 A2989 RMK AO2
KFWB 041635Z AUTO 00000KT 10SM CLR 20/20 A2989 RMK AO2
KFWB 041615Z AUTO 22004KT 10SM CLR 19/19 A2989 RMK AO2
KFWB 041555Z AUTO 24009KT 10SM CLR 18/18 A2989 RMK AO2
KFWB 041535Z AUTO 23006KT 200V270 10SM FEW006 18/18 A2989 RMK AO2
KFWB 041515Z AUTO 23007KT 10SM SCT005 18/18 A2989 RMK AO2
KFWB 041455Z AUTO 24005G14KT 10SM BKN005 18/18 A2991 RMK AO2 LTG DSNT S AND SW
KFWB 041435Z AUTO 23007KT 10SM BKN005 18/18 A2992 RMK AO2 LTG DSNT W
KFWB 041415Z AUTO 23010G16KT 5SM VCTS -RA SCT005 SCT095 A2991 RMK AO2 LTG DSNT S AND SW
KFWB 041355Z AUTO 19007KT 5SM BR FEW004 SCT055 BKN095 18/18 A2992 RMK AO2 LTG DSNT SW AND NW P0001
KFWB 041335Z AUTO 22006KT 1/4SM -RA BKN001 BKN036 OVC055 18/18 A2995 RMK AO2 LTG DSNT SW-NW P0001
KFWB 041315Z AUTO 26003KT 1 1/4SM -RA SCT041 BKN050 OVC110 18/18 A2995 RMK AO2
KFWB 041255Z AUTO 21004KT 7SM -RA BKN100 17/17 A2994 RMK AO2 LTG DSNT SW AND NW
KFWB 041235Z AUTO 16004KT 10SM OVC090 17/17 A2993 RMK AO2 LTG DSNT E AND SW
KFWB 041215Z AUTO 11003KT 10SM FEW035 BKN080 17/17 A2991 RMK AO2 LTG DSNT NW
KFWB 041155Z AUTO 06003KT 3SM -RA FEW035 BKN055 OVC120 17/17 A2994 RMK AO2 LTG DSNT SW-NW P0002
KFWB 041135Z AUTO 02009G16KT 350V050 9SM -RA FEW050 BKN065 OVC095 17/17 A2993 RMK AO2
KFWB 041115Z AUTO 01006G19KT 8SM VCTS -RA FEW015 SCT046 BKN055 17/17 A2992 RMK AO2 LTG DSNT ALQDS
KFWB 041055Z AUTO 01013G26KT 4SM -TSRA SCT002 BKN045 OVC070 17/17 A2994 RMK AO2 LTG DSNT ALQDS P0058
KFWB 041035Z AUTO 01015G43KT 1/4SM +TSRA OVC004 19/19 A2994 RMK AO2 LTG DSNT ALQDS P0045
KFWB 041015Z AUTO 24008KT 10SM VCTS FEW085 22/22 A2984 RMK AO2 LTG DSNT NW-NE
KFWB 040955Z AUTO 23008KT 10SM VCTS CLR 21/21 A2984 RMK AO2 LTG DSNT N AND NW
KFWB 040935Z AUTO 23006KT 10SM CLR 22/22 A2985 RMK AO2 LTG DSNT NW
KFWB 040915Z AUTO 22004KT 10SM CLR 21/21 A2984 RMK AO2 LTG DSNT NW
KFWB 040855Z AUTO 22005KT 10SM FEW046 21/21 A2984 RMK AO2 LTG DSNT NW-NE
KFWB 040815Z AUTO 23007KT 10SM CLR 22/22 A2985 RMK AO2
KFWB 040755Z AUTO 25004KT 10SM CLR 22/22 A2986 RMK AO2
KFWB 040715Z AUTO 22005KT 10SM CLR 22/22 A2986 RMK AO2
KFWB 040655Z AUTO 23006KT 10SM CLR 22/22 A2987 RMK AO2
KFWB 040635Z AUTO 22005KT 10SM CLR 22/22 A2987 RMK AO2
KFWB 040615Z AUTO 24006KT 10SM CLR 22/22 A2989 RMK AO2
KFWB 040555Z AUTO 22007KT 10SM CLR 22/22 A2990 RMK AO2
KFWB 040535Z AUTO 24004KT 10SM CLR 22/22 A2990 RMK AO2
KFWB 040515Z AUTO 23007KT 10SM CLR 22/22 A2990 RMK AO2
KFWB 040455Z AUTO 21003KT 10SM CLR 22/22 A2991 RMK AO2
KFWB 040435Z AUTO 21004KT 10SM CLR 22/22 A2990 RMK AO2
KFWB 040415Z AUTO 21004KT 10SM CLR 22/22 A2989 RMK AO2
KFWB 040355Z AUTO 24004KT 10SM CLR 22/22 A2989 RMK AO2
KFWB 040335Z AUTO 23004KT 10SM CLR 22/22 A2989 RMK AO2
KFWB 040315Z AUTO 23004KT 10SM FEW038 22/22 A2989 RMK AO2
KFWB 040255Z AUTO 17004KT 10SM FEW040 23/23 A2988 RMK AO2
KFWB 040235Z AUTO 18004KT 10SM CLR 23/23 A2989 RMK AO2
KFWB 040215Z AUTO 17003KT 10SM FEW043 23/23 A2989 RMK AO2
KFWB 040155Z AUTO 00000KT 10SM CLR 24/22 A2989 RMK AO2
KFWB 040135Z AUTO 11003KT 10SM CLR 24/22 A2989 RMK AO2
KFWB 040115Z AUTO 00000KT 10SM CLR 24/22 A2989 RMK AO2 LTG DSNT N
KFWB 040055Z AUTO 15003KT 10SM SCT043 SCT070 24/22 A2989 RMK AO2
KFWB 040035Z AUTO 13005KT 10SM BKN043 BKN070 BKN090 25/22 A2990 RMK AO2
KFWB 040015Z AUTO 13005G14KT 10SM BKN044 BKN070 25/22 A2991 RMK AO2
KFWB 032355Z AUTO 13006KT 10SM FEW049 26/24 A2991 RMK AO2
KFWB 032315Z AUTO 15006KT 10SM CLR 27/24 A2989 RMK AO2 LTG DSNT E AND SE
KFWB 032255Z AUTO 15003KT 10SM CLR 27/24 A2989 RMK AO2
KFWB 032235Z AUTO 12006KT 10SM CLR 27/24 A2990 RMK AO2 LTG DSNT E AND SE
KFWB 032215Z AUTO 12006KT 10SM CLR 27/24 A2990 RMK AO2
KFWB 032155Z AUTO 15004KT 10SM CLR 28/23 A2991 RMK AO2 LTG DSNT SE AND S
KFWB 032135Z AUTO 19003KT 10SM CLR 28/24 A2991 RMK AO2 LTG DSNT E-S
KFWB 032115Z AUTO 00000KT 10SM CLR 27/25 A2992 RMK AO2 LTG DSNT E-S
KFWB 032055Z AUTO 14003KT 10SM -RA FEW095 26/26 A2993 RMK AO2 LTG DSNT NE AND SE
KFWB 032035Z AUTO 00000KT 10SM FEW095 24/24 A2993 RMK AO2 LTG DSNT E-S
KFWB 032015Z AUTO 00000KT 6SM BR CLR 23/23 A2993 RMK AO2 LTG DSNT E AND SE
KFWB 031955Z AUTO 00000KT 9SM VCTS FEW095 23/23 A2993 RMK AO2 LTG DSNT NE-SE P0002
KFWB 031935Z AUTO 25003KT 8SM VCTS SCT095 BKN120 22/22 A2994 RMK AO2 LTG DSNT NE-SE P0002
KFWB 031915Z AUTO 12003KT 5SM VCTS -RA FEW003 SCT060 BKN095 22/22 A2995 RMK AO2 LTG DSNT NE-S P0002
KFWB 031855Z AUTO 29010G24KT 2 1/2SM VCTS -RA FEW003 BKN037 OVC070 24/23 A2997 RMK AO2 LTG DSNT ALQDS P0012
KFWB 031835Z AUTO 27006KT 3SM VCTS -RA FEW033 BKN039 BKN060 25/22 A2995 RMK AO2 LTG DSNT ALQDS P0001
KFWB 031815Z AUTO 28007G14KT 210V320 10SM SCT041 29/21 A2996 RMK AO2 LTG DSNT ALQDS
KFWB 031755Z AUTO 22010G14KT 160V260 10SM SCT041 BKN050 29/21 A2997 RMK AO2
KFWB 031735Z AUTO 26007KT 10SM FEW039 SCT050 29/21 A2998 RMK AO2 LTG DSNT SE AND S
KFWB 031715Z AUTO 23010G15KT 10SM SCT037 29/22 A2998 RMK AO2 LTG DSNT SE
KFWB 031655Z AUTO 21010KT 180V250 10SM FEW035 29/21 A2999 RMK AO2
KFWB 031635Z AUTO 25010G17KT 200V270 10SM FEW033 29/22 A3000 RMK AO2 LTG DSNT SE
KFWB 031615Z AUTO 22006KT 190V250 10SM CLR 29/22 A3000 RMK AO2
KFWB 031555Z AUTO 22008KT 10SM CLR 28/22 A3001 RMK AO2
KFWB 031535Z AUTO 25006KT 10SM CLR 28/22 A3002 RMK AO2
KFWB 031515Z AUTO 22008G14KT 190V250 10SM CLR 27/22 A3002 RMK AO2
KFWB 031455Z AUTO 24007KT 10SM CLR 27/22 A3002 RMK AO2